Time;durP1;ratioP1;P1;durP2;ratioP2;P2;SDS_P1;SDS_P2;PMS_P1;PMS_P2;Temp;Humidity;BMP_temperature;BMP_pressure;BME280_temperature;BME280_humidity;BME280_pressure;Samples;Min_cycle;Max_cycle;Signal;HPM_P1;HPM_P2
2021/09/19 02:46:10;;;;;;;9.60;7.45;;;16.00;98.50;;;;;;5398254;24;20276;-83
2021/09/19 02:48:36;;;;;;;7.88;7.03;;;16.00;98.60;;;;;;4751720;30;20036;-83
2021/09/19 02:51:02;;;;;;;8.80;7.70;;;16.10;98.50;;;;;;4751426;30;20071;-83
2021/09/19 02:53:28;;;;;;;9.93;7.22;;;16.10;98.20;;;;;;4751856;30;20032;-83
2021/09/19 02:55:54;;;;;;;8.25;7.45;;;16.20;98.30;;;;;;4751560;30;20035;-83
2021/09/19 02:58:19;;;;;;;17.80;7.68;;;16.20;98.10;;;;;;4752379;30;20378;-83
2021/09/19 03:00:45;;;;;;;9.30;8.30;;;16.20;98.10;;;;;;4766440;30;20063;-83
2021/09/19 03:03:11;;;;;;;9.60;7.97;;;16.20;97.90;;;;;;4754634;30;20038;-83
2021/09/19 03:05:37;;;;;;;8.68;7.72;;;16.30;97.90;;;;;;4769814;30;20035;-82
2021/09/19 03:08:03;;;;;;;11.68;8.30;;;16.30;97.60;;;;;;4785056;30;20048;-83
2021/09/19 03:10:30;;;;;;;9.60;7.93;;;16.40;97.80;;;;;;4754913;30;20040;-83
2021/09/19 03:12:55;;;;;;;9.25;8.35;;;16.30;97.60;;;;;;4769866;30;20230;-83
2021/09/19 03:15:22;;;;;;;10.80;8.10;;;16.40;97.70;;;;;;4785794;30;20059;-83
2021/09/19 03:17:48;;;;;;;12.52;9.23;;;16.30;97.60;;;;;;4754752;30;20078;-83
2021/09/19 03:20:16;;;;;;;10.18;8.65;;;16.30;97.60;;;;;;4754760;30;20031;-84
2021/09/19 03:22:42;;;;;;;10.73;7.97;;;16.40;97.70;;;;;;4769589;30;20043;-83
2021/09/19 03:25:09;;;;;;;12.02;9.48;;;16.40;97.60;;;;;;4754805;30;20031;-83
2021/09/19 03:27:35;;;;;;;9.63;8.60;;;16.40;97.50;;;;;;4769124;30;20043;-83
2021/09/19 03:30:01;;;;;;;9.88;8.88;;;16.40;97.20;;;;;;4754171;30;20109;-83
2021/09/19 03:32:27;;;;;;;10.30;9.20;;;16.30;97.20;;;;;;4754089;30;20216;-84
2021/09/19 03:34:53;;;;;;;9.75;8.38;;;16.30;97.30;;;;;;4754491;30;20602;-83
2021/09/19 03:37:18;;;;;;;12.73;8.25;;;16.30;97.30;;;;;;4754703;30;20024;-83
2021/09/19 03:39:45;;;;;;;11.10;9.65;;;16.30;97.20;;;;;;4769179;30;20366;-84
2021/09/19 03:42:10;;;;;;;10.23;8.90;;;16.30;97.20;;;;;;4769297;30;20031;-84
2021/09/19 03:44:36;;;;;;;9.45;8.45;;;16.40;97.30;;;;;;4754509;30;20027;-83
2021/09/19 03:47:02;;;;;;;11.55;8.23;;;16.40;97.10;;;;;;4758006;30;20152;-84
2021/09/19 03:49:28;;;;;;;9.57;8.52;;;16.40;97.20;;;;;;4751451;30;20036;-84
2021/09/19 03:51:54;;;;;;;11.63;8.63;;;16.40;97.20;;;;;;4751279;30;20067;-83
2021/09/19 03:54:20;;;;;;;17.23;9.33;;;16.40;97.10;;;;;;4751156;30;20032;-83
2021/09/19 03:56:46;;;;;;;10.55;8.35;;;16.40;97.10;;;;;;4751426;30;20067;-83
2021/09/19 03:59:11;;;;;;;9.88;8.88;;;16.40;96.80;;;;;;4751268;30;20024;-84
2021/09/19 04:01:37;;;;;;;14.30;9.27;;;16.40;97.00;;;;;;4751650;30;20062;-84
2021/09/19 04:04:03;;;;;;;11.52;9.15;;;16.50;97.00;;;;;;4736546;30;20028;-83
2021/09/19 04:06:29;;;;;;;10.10;8.27;;;16.50;97.00;;;;;;4750838;30;20047;-84
2021/09/19 04:08:54;;;;;;;9.75;8.63;;;16.40;96.90;;;;;;4750427;30;20036;-84
2021/09/19 04:11:20;;;;;;;11.15;9.30;;;16.50;97.00;;;;;;4750924;30;20304;-83
2021/09/19 04:13:46;;;;;;;13.73;8.15;;;16.50;97.00;;;;;;4750356;30;20239;-84
2021/09/19 04:16:11;;;;;;;10.40;8.57;;;16.60;96.90;;;;;;4750889;30;20324;-84
2021/09/19 04:18:37;;;;;;;9.88;8.18;;;16.60;96.80;;;;;;4750698;30;20052;-84
2021/09/19 04:21:03;;;;;;;12.18;8.35;;;16.60;96.80;;;;;;4750836;30;20068;-84
2021/09/19 04:23:29;;;;;;;12.23;8.82;;;16.60;96.60;;;;;;4750466;30;20232;-84
2021/09/19 04:25:54;;;;;;;10.70;9.43;;;16.60;96.70;;;;;;4750856;30;20071;-84
2021/09/19 04:28:20;;;;;;;10.98;8.82;;;16.60;96.40;;;;;;4750504;30;20064;-83
2021/09/19 04:30:46;;;;;;;11.45;9.20;;;16.50;96.50;;;;;;4750966;30;20040;-84
2021/09/19 04:33:12;;;;;;;11.57;9.95;;;16.50;96.40;;;;;;4750727;30;20059;-84
2021/09/19 04:35:38;;;;;;;11.35;9.60;;;16.50;96.50;;;;;;4750798;30;20390;-83
2021/09/19 04:38:04;;;;;;;13.45;10.20;;;16.50;96.50;;;;;;4750566;30;20028;-84
2021/09/19 04:40:30;;;;;;;11.60;10.38;;;16.50;96.50;;;;;;4750728;30;20040;-83
2021/09/19 04:42:55;;;;;;;12.90;10.38;;;16.60;96.60;;;;;;4750642;30;20063;-84
2021/09/19 04:45:21;;;;;;;12.52;9.95;;;16.60;96.50;;;;;;4766149;30;20036;-84
2021/09/19 04:47:47;;;;;;;13.50;9.80;;;16.60;96.30;;;;;;4749958;30;20082;-84
2021/09/19 04:50:13;;;;;;;12.10;10.07;;;16.60;96.40;;;;;;4750177;30;20065;-84
2021/09/19 04:52:39;;;;;;;11.13;9.55;;;16.60;96.50;;;;;;4735933;30;20334;-84
2021/09/19 04:55:05;;;;;;;11.52;10.13;;;16.50;96.60;;;;;;4750194;30;20024;-83
2021/09/19 04:57:31;;;;;;;12.17;9.93;;;16.60;96.60;;;;;;4750115;30;20088;-84
2021/09/19 04:59:56;;;;;;;14.10;10.10;;;16.60;96.50;;;;;;4750005;30;20224;-84
2021/09/19 05:02:22;;;;;;;14.05;10.13;;;16.60;96.50;;;;;;4749519;30;20093;-84
2021/09/19 05:04:48;;;;;;;12.25;9.27;;;16.60;96.60;;;;;;4750304;30;20062;-84
2021/09/19 05:07:14;;;;;;;11.88;10.35;;;16.60;96.50;;;;;;4749952;30;20111;-84
2021/09/19 05:09:40;;;;;;;11.45;10.23;;;16.50;96.50;;;;;;4749891;30;20062;-84
2021/09/19 05:12:06;;;;;;;13.60;11.32;;;16.60;96.80;;;;;;4749886;30;20244;-84
2021/09/19 05:14:32;;;;;;;17.35;11.00;;;16.50;96.30;;;;;;4749823;30;20288;-84
2021/09/19 05:16:58;;;;;;;15.10;10.93;;;16.40;96.60;;;;;;4749409;30;20036;-84
2021/09/19 05:19:24;;;;;;;12.23;10.55;;;16.50;96.60;;;;;;4764569;30;20046;-84
2021/09/19 05:21:49;;;;;;;12.93;10.68;;;16.50;96.50;;;;;;4749695;30;20036;-84
2021/09/19 05:24:15;;;;;;;12.18;10.57;;;16.50;96.50;;;;;;4748685;30;20024;-84
2021/09/19 05:26:41;;;;;;;13.88;11.48;;;16.50;96.50;;;;;;4748018;30;20036;-84
2021/09/19 05:29:07;;;;;;;13.40;11.15;;;16.50;96.60;;;;;;4749622;30;20232;-84
2021/09/19 05:31:33;;;;;;;13.13;10.68;;;16.40;96.50;;;;;;4749206;30;20035;-83
2021/09/19 05:33:59;;;;;;;12.45;10.00;;;16.50;96.50;;;;;;4754850;30;20027;-84
2021/09/19 05:36:25;;;;;;;15.13;10.43;;;16.50;96.50;;;;;;4758647;30;20028;-84
2021/09/19 05:38:50;;;;;;;10.98;9.75;;;16.60;96.60;;;;;;4764799;30;20031;-84
2021/09/19 05:41:16;;;;;;;16.35;10.02;;;16.60;96.40;;;;;;4749048;30;20290;-83
2021/09/19 05:43:42;;;;;;;14.23;9.77;;;16.60;96.20;;;;;;4749121;30;20047;-83
2021/09/19 05:46:10;;;;;;;10.05;9.05;;;16.70;96.10;;;;;;4748782;30;20071;-84
2021/09/19 05:48:36;;;;;;;10.93;9.82;;;16.70;96.00;;;;;;4748849;30;20101;-84
2021/09/19 05:51:03;;;;;;;12.48;9.38;;;16.80;96.10;;;;;;4729732;30;20040;-84
2021/09/19 05:53:28;;;;;;;11.23;9.55;;;16.80;95.70;;;;;;4732180;30;20288;-83
2021/09/19 05:55:54;;;;;;;10.40;9.20;;;16.80;95.70;;;;;;4732323;30;20028;-84
2021/09/19 05:58:20;;;;;;;14.15;9.43;;;16.80;95.80;;;;;;4741562;30;20039;-82
2021/09/19 06:00:46;;;;;;;11.45;9.88;;;16.90;95.70;;;;;;4761820;30;20044;-83
2021/09/19 06:03:11;;;;;;;12.43;10.48;;;16.80;95.60;;;;;;4749414;30;20038;-84
2021/09/19 06:05:37;;;;;;;14.20;9.77;;;16.90;95.60;;;;;;4734769;30;20035;-85
2021/09/19 06:08:03;;;;;;;11.60;9.88;;;16.80;95.50;;;;;;4734597;30;20046;-85
2021/09/19 06:10:29;;;;;;;11.98;10.63;;;16.80;95.70;;;;;;4749247;30;20040;-85
2021/09/19 06:12:55;;;;;;;12.43;9.60;;;16.90;95.60;;;;;;4749198;30;20047;-85
2021/09/19 06:15:20;;;;;;;18.25;9.55;;;17.00;95.40;;;;;;4764806;30;20039;-85
2021/09/19 06:17:46;;;;;;;14.13;9.38;;;17.00;95.30;;;;;;4750031;30;20051;-84
2021/09/19 06:20:12;;;;;;;12.27;9.68;;;17.00;95.30;;;;;;4749619;30;20035;-84
2021/09/19 06:22:38;;;;;;;13.70;9.40;;;17.00;95.40;;;;;;4749528;30;20228;-85
2021/09/19 06:25:05;;;;;;;11.85;8.55;;;17.10;95.20;;;;;;4749733;30;20036;-86
2021/09/19 06:27:30;;;;;;;10.95;8.98;;;17.10;95.10;;;;;;4779786;30;20032;-85
2021/09/19 06:29:56;;;;;;;11.98;9.07;;;17.20;95.00;;;;;;4749761;30;20062;-85
2021/09/19 06:32:22;;;;;;;12.73;9.18;;;17.30;95.20;;;;;;4763937;30;20043;-85
2021/09/19 06:34:48;;;;;;;9.82;8.15;;;17.40;94.80;;;;;;4749196;30;20203;-86
2021/09/19 06:37:14;;;;;;;10.00;7.80;;;17.50;94.60;;;;;;4751250;30;20035;-85
2021/09/19 06:39:39;;;;;;;8.75;7.57;;;17.50;94.20;;;;;;4753151;30;20028;-85
2021/09/19 06:42:05;;;;;;;8.68;7.35;;;17.50;94.10;;;;;;4753286;30;20036;-86
2021/09/19 06:44:31;;;;;;;9.77;7.20;;;17.50;93.80;;;;;;4752984;30;20212;-85
2021/09/19 06:46:57;;;;;;;9.35;7.68;;;17.50;93.70;;;;;;4750861;30;20080;-85
2021/09/19 06:49:26;;;;;;;8.55;7.25;;;17.50;93.40;;;;;;4735410;30;20103;-85
2021/09/19 06:51:52;;;;;;;8.00;6.70;;;17.50;93.80;;;;;;4735575;30;20036;-86
2021/09/19 06:54:18;;;;;;;9.85;7.80;;;17.50;93.60;;;;;;4735597;30;20256;-84
2021/09/19 06:56:46;;;;;;;8.02;7.22;;;17.60;93.50;;;;;;4721244;30;20328;-83
2021/09/19 06:59:12;;;;;;;11.02;6.78;;;17.70;93.60;;;;;;4720602;30;20033;-85
2021/09/19 07:01:38;;;;;;;9.45;7.28;;;17.70;93.60;;;;;;4735853;30;20201;-85
2021/09/19 07:04:05;;;;;;;;;;;17.80;93.50;;;;;;4721837;30;20039;-85
2021/09/19 07:06:31;;;;;;;7.43;6.47;;;17.80;93.10;;;;;;4736273;30;20230;-84
2021/09/19 07:08:57;;;;;;;8.30;7.50;;;17.80;92.90;;;;;;4721405;30;20061;-85
2021/09/19 07:11:25;;;;;;;8.57;7.00;;;17.80;93.00;;;;;;4734987;30;20394;-85
2021/09/19 07:13:51;;;;;;;10.20;7.40;;;17.80;93.00;;;;;;4752545;30;20091;-85
2021/09/19 07:16:17;;;;;;;8.23;7.10;;;17.80;92.90;;;;;;4752846;30;20039;-85
2021/09/19 07:18:43;;;;;;;8.10;6.97;;;17.80;93.00;;;;;;4752103;30;20071;-85
2021/09/19 07:21:09;;;;;;;7.38;6.65;;;17.90;93.10;;;;;;4752360;30;20040;-86
2021/09/19 07:23:35;;;;;;;8.93;6.63;;;17.90;92.80;;;;;;4737051;30;20054;-85
2021/09/19 07:26:01;;;;;;;7.07;6.13;;;17.90;92.70;;;;;;4742068;30;20020;-85
2021/09/19 07:28:28;;;;;;;7.38;6.38;;;18.00;92.60;;;;;;4736197;30;20135;-86
2021/09/19 07:30:54;;;;;;;7.97;6.35;;;18.00;92.10;;;;;;4750651;30;20154;-85
2021/09/19 07:33:22;;;;;;;9.57;6.85;;;17.90;92.40;;;;;;4750037;30;20090;-85
2021/09/19 07:35:49;;;;;;;6.72;5.47;;;17.90;92.10;;;;;;4750683;30;20054;-86
2021/09/19 07:38:16;;;;;;;9.45;5.10;;;18.00;92.50;;;;;;4750685;30;20219;-86
2021/09/19 07:40:42;;;;;;;7.30;5.50;;;18.10;92.10;;;;;;4750617;30;20081;-86
2021/09/19 07:43:08;;;;;;;5.95;5.35;;;18.10;91.50;;;;;;4750920;30;20215;-86
2021/09/19 07:45:34;;;;;;;7.57;5.45;;;18.10;91.30;;;;;;4742030;30;20556;-86
2021/09/19 07:48:03;;;;;;;5.40;4.90;;;18.20;91.30;;;;;;4737593;30;20107;-87
2021/09/19 07:50:29;;;;;;;4.63;4.05;;;18.40;91.30;;;;;;4749387;30;20124;-87
2021/09/19 07:52:55;;;;;;;4.53;3.83;;;18.50;90.50;;;;;;4749969;30;20035;-86
2021/09/19 07:55:21;;;;;;;4.82;3.42;;;18.60;90.80;;;;;;4749259;30;20282;-86
2021/09/19 07:57:46;;;;;;;4.30;3.70;;;18.80;90.00;;;;;;4761606;30;20039;-86
2021/09/19 08:00:12;;;;;;;5.57;4.03;;;18.90;87.40;;;;;;4759681;30;20028;-85
2021/09/19 08:02:39;;;;;;;3.85;3.25;;;19.00;86.90;;;;;;4767026;30;20032;-86
2021/09/19 08:05:06;;;;;;;3.85;3.20;;;19.10;84.90;;;;;;4749396;30;20319;-86
2021/09/19 08:07:31;;;;;;;3.50;3.13;;;19.10;84.90;;;;;;4749473;30;20046;-86
2021/09/19 08:09:57;;;;;;;4.22;3.28;;;19.20;84.50;;;;;;4749228;30;20315;-86
2021/09/19 08:12:23;;;;;;;4.55;2.97;;;19.30;84.90;;;;;;4733347;30;20036;-86
2021/09/19 08:14:49;;;;;;;4.20;3.47;;;19.30;84.10;;;;;;4747680;30;20107;-86
2021/09/19 08:17:14;;;;;;;3.47;3.00;;;19.40;84.50;;;;;;4743906;30;20086;-86
2021/09/19 08:19:40;;;;;;;5.50;3.90;;;19.50;83.40;;;;;;4752237;30;20035;-86
2021/09/19 08:22:06;;;;;;;4.80;3.70;;;19.40;84.80;;;;;;4752156;30;20032;-86
2021/09/19 08:24:34;;;;;;;4.00;3.05;;;19.40;82.30;;;;;;4767053;30;20437;-85
2021/09/19 08:27:03;;;;;;;6.00;3.85;;;19.40;83.00;;;;;;4763169;30;20103;-86
2021/09/19 08:29:29;;;;;;;4.55;3.75;;;19.40;83.20;;;;;;4748984;30;20059;-85
2021/09/19 08:31:54;;;;;;;3.97;3.40;;;19.40;84.10;;;;;;4734137;30;20040;-85
2021/09/19 08:34:21;;;;;;;5.13;4.00;;;19.40;84.20;;;;;;4734535;30;20032;-85
2021/09/19 08:36:47;;;;;;;5.57;4.20;;;19.40;84.30;;;;;;4748815;30;20028;-85
2021/09/19 08:39:12;;;;;;;4.95;3.80;;;19.30;83.50;;;;;;4748849;30;20052;-85
2021/09/19 08:41:40;;;;;;;4.65;3.83;;;19.10;85.00;;;;;;4748903;30;20090;-85
2021/09/19 08:44:06;;;;;;;6.85;4.00;;;19.10;85.40;;;;;;4748803;30;20051;-85
2021/09/19 08:46:33;;;;;;;5.72;4.13;;;19.00;85.80;;;;;;4752823;30;20316;-84
2021/09/19 08:48:59;;;;;;;2.92;2.22;;;18.90;87.10;;;;;;4751953;30;20332;-84
2021/09/19 08:51:25;;;;;;;4.20;2.20;;;18.90;84.70;;;;;;4751359;30;20273;-85
2021/09/19 08:53:51;;;;;;;4.63;2.50;;;18.80;83.30;;;;;;4765995;30;20062;-85
2021/09/19 08:56:24;;;;;;;2.85;2.28;;;18.80;84.70;;;;;;4751517;30;20043;-84
2021/09/19 08:58:51;;;;;;;3.88;1.60;;;18.90;85.00;;;;;;4748365;30;20032;-85
2021/09/19 09:01:17;;;;;;;;;;;18.90;83.80;;;;;;4748546;30;20027;-84
2021/09/19 09:03:43;;;;;;;2.13;1.57;;;18.90;83.30;;;;;;4748622;30;19937;-85
2021/09/19 09:06:14;;;;;;;2.20;1.40;;;18.80;81.80;;;;;;4749090;30;20055;-84
2021/09/19 09:08:41;;;;;;;4.00;1.38;;;18.90;82.80;;;;;;4748787;30;20032;-85
2021/09/19 09:11:07;;;;;;;1.52;1.20;;;19.00;82.50;;;;;;4748351;30;20375;-85
2021/09/19 09:13:36;;;;;;;3.00;1.67;;;19.10;82.50;;;;;;4748410;30;20036;-83
2021/09/19 09:16:04;;;;;;;8.05;1.75;;;19.30;82.50;;;;;;4748276;30;20042;-83
2021/09/19 09:18:39;;;;;;;1.90;1.60;;;19.60;81.60;;;;;;4733766;30;20163;-84
2021/09/19 09:21:07;;;;;;;2.72;1.80;;;19.80;81.20;;;;;;4748565;30;20040;-84
2021/09/19 09:23:43;;;;;;;1.67;1.38;;;20.00;79.30;;;;;;4754302;30;20048;-83
2021/09/19 09:26:23;;;;;;;2.00;1.38;;;20.10;77.50;;;;;;4748797;30;20078;-84
2021/09/19 09:29:03;;;;;;;1.50;1.20;;;20.10;75.10;;;;;;4763827;30;20157;-83
2021/09/19 09:31:31;;;;;;;2.28;1.10;;;20.10;75.10;;;;;;4748014;30;20286;-84
2021/09/19 09:34:23;;;;;;;2.08;1.02;;;20.10;74.60;;;;;;4733371;30;20032;-83
2021/09/19 09:36:53;;;;;;;3.03;1.17;;;20.00;75.70;;;;;;4680850;30;20072;-84
2021/09/19 09:39:27;;;;;;;1.30;1.17;;;20.20;73.80;;;;;;4693004;30;20046;-84
2021/09/19 09:41:55;;;;;;;1.50;1.02;;;20.20;74.00;;;;;;4692450;30;20089;-83
2021/09/19 09:44:31;;;;;;;1.65;1.05;;;20.30;72.10;;;;;;4678223;30;20065;-84
2021/09/19 09:46:58;;;;;;;0.83;0.80;;;20.30;74.20;;;;;;4677218;30;20050;-83
2021/09/19 09:49:48;;;;;;;1.45;1.13;;;20.30;70.20;;;;;;4678339;30;20310;-84
2021/09/19 09:52:19;;;;;;;0.88;0.60;;;20.20;71.80;;;;;;4692501;30;20046;-84
2021/09/19 09:54:47;;;;;;;1.38;0.65;;;20.30;68.60;;;;;;4679745;30;20042;-84
2021/09/19 09:57:35;;;;;;;1.77;1.00;;;20.10;69.60;;;;;;4691788;30;20062;-84
2021/09/19 10:00:16;;;;;;;1.08;0.80;;;20.10;69.10;;;;;;4671674;30;20054;-83
2021/09/19 10:02:45;;;;;;;0.50;0.50;;;20.20;70.60;;;;;;4657892;30;20050;-83
2021/09/19 10:05:13;;;;;;;0.70;0.60;;;20.50;69.30;;;;;;4643637;30;20047;-83
2021/09/19 10:07:42;;;;;;;0.95;0.73;;;20.60;69.50;;;;;;4644044;30;20113;-83
2021/09/19 10:10:11;;;;;;;1.98;0.90;;;20.70;69.80;;;;;;4644206;30;20110;-83
2021/09/19 10:12:37;;;;;;;0.95;0.77;;;20.90;66.70;;;;;;4635111;30;20046;-83
2021/09/19 10:15:05;;;;;;;3.27;1.03;;;20.80;67.30;;;;;;4724491;30;20124;-84
2021/09/19 10:17:32;;;;;;;1.52;0.95;;;20.80;68.60;;;;;;4680809;30;20256;-83
2021/09/19 10:19:59;;;;;;;2.45;0.93;;;20.90;66.80;;;;;;4696051;30;20045;-83
2021/09/19 10:22:31;;;;;;;1.13;0.82;;;20.70;68.40;;;;;;4681654;30;20042;-83
2021/09/19 10:24:58;;;;;;;1.20;0.80;;;20.60;68.20;;;;;;4696024;30;20321;-84
2021/09/19 10:27:30;;;;;;;0.80;0.60;;;20.60;69.30;;;;;;4695547;30;20073;-83
2021/09/19 10:30:02;;;;;;;1.55;0.68;;;20.60;69.00;;;;;;4695116;30;20341;-83
2021/09/19 10:32:42;;;;;;;1.48;0.77;;;20.70;69.50;;;;;;4709344;30;20105;-83
2021/09/19 10:35:18;;;;;;;1.00;0.63;;;20.90;70.80;;;;;;4681171;30;20037;-83
2021/09/19 10:37:54;;;;;;;6.70;0.70;;;21.10;69.40;;;;;;4722693;30;20040;-83
2021/09/19 10:40:35;;;;;;;0.82;0.60;;;21.10;66.90;;;;;;4730393;30;20390;-83
2021/09/19 10:43:21;;;;;;;1.02;0.80;;;21.10;67.70;;;;;;4730345;30;20037;-83
2021/09/19 10:45:53;;;;;;;1.23;0.65;;;21.10;67.90;;;;;;4729743;30;20039;-83
2021/09/19 10:48:28;;;;;;;0.90;0.43;;;21.10;63.80;;;;;;4730118;30;20033;-83
2021/09/19 10:51:05;;;;;;;1.67;0.82;;;20.90;65.90;;;;;;4730731;30;20040;-83
2021/09/19 10:53:32;;;;;;;0.40;0.40;;;21.00;66.70;;;;;;4730574;30;20048;-83
2021/09/19 10:56:00;;;;;;;1.08;0.60;;;21.00;66.40;;;;;;4731080;30;20082;-83
2021/09/19 10:58:27;;;;;;;0.70;0.57;;;21.00;66.60;;;;;;4730495;30;20041;-83
2021/09/19 11:01:10;;;;;;;1.13;0.73;;;21.20;66.10;;;;;;4730503;30;20040;-83
2021/09/19 11:03:37;;;;;;;0.73;0.52;;;21.10;65.20;;;;;;4730533;30;20033;-83
2021/09/19 11:06:03;;;;;;;1.40;0.50;;;21.20;65.70;;;;;;4730481;30;20041;-83
2021/09/19 11:08:37;;;;;;;1.10;0.60;;;21.40;65.90;;;;;;4730989;30;20045;-83
2021/09/19 11:11:11;;;;;;;0.93;0.60;;;21.70;64.70;;;;;;4745220;30;20145;-83
2021/09/19 11:13:53;;;;;;;1.40;0.75;;;22.00;64.20;;;;;;4730652;30;20033;-83
2021/09/19 11:16:21;;;;;;;0.75;0.63;;;22.10;60.80;;;;;;4736001;30;20032;-83
2021/09/19 11:18:50;;;;;;;0.50;0.50;;;22.00;63.00;;;;;;4751226;30;20080;-83
2021/09/19 11:21:27;;;;;;;0.63;0.55;;;21.80;63.90;;;;;;4751625;30;20036;-83
2021/09/19 11:24:08;;;;;;;1.00;0.60;;;21.80;63.00;;;;;;4753397;30;20228;-83
2021/09/19 11:26:56;;;;;;;1.20;0.60;;;21.80;63.80;;;;;;4754702;30;20076;-83
2021/09/19 11:29:24;;;;;;;0.77;0.50;;;21.60;63.70;;;;;;4754269;30;20159;-83
2021/09/19 11:31:52;;;;;;;5.68;0.80;;;21.50;63.40;;;;;;4784429;30;20047;-83
2021/09/19 11:34:22;;;;;;;1.75;0.43;;;21.60;62.00;;;;;;4753799;30;20036;-83
2021/09/19 11:36:56;;;;;;;2.85;0.70;;;21.50;62.40;;;;;;4753895;30;20038;-83
2021/09/19 11:39:22;;;;;;;0.68;0.43;;;21.40;63.70;;;;;;4753691;30;20051;-83
2021/09/19 11:41:49;;;;;;;0.82;0.70;;;21.40;63.20;;;;;;4753867;30;20073;-83
2021/09/19 11:44:17;;;;;;;2.22;0.70;;;21.40;63.50;;;;;;4784490;30;20362;-83
2021/09/19 11:46:49;;;;;;;0.68;0.50;;;21.50;63.00;;;;;;4762496;30;20048;-83
2021/09/19 11:49:17;;;;;;;1.10;0.50;;;21.60;63.40;;;;;;4750837;30;20083;-83
2021/09/19 11:51:44;;;;;;;1.67;0.68;;;21.70;63.40;;;;;;4751253;30;20361;-83
2021/09/19 11:54:15;;;;;;;1.80;0.50;;;21.80;61.80;;;;;;4765897;30;20032;-83
2021/09/19 11:56:47;;;;;;;0.98;0.75;;;21.80;60.80;;;;;;4751144;30;20032;-83
2021/09/19 11:59:15;;;;;;;2.45;0.70;;;21.70;63.00;;;;;;4736796;30;20239;-83
2021/09/19 12:01:42;;;;;;;0.70;0.60;;;21.70;62.90;;;;;;4751216;30;20030;-83
2021/09/19 12:04:09;;;;;;;0.85;0.60;;;21.70;61.50;;;;;;4736253;30;20324;-83
2021/09/19 12:06:37;;;;;;;0.60;0.55;;;21.60;61.90;;;;;;4765415;30;20127;-83
2021/09/19 12:09:08;;;;;;;1.20;0.80;;;21.40;62.70;;;;;;4750736;30;20036;-82
2021/09/19 12:11:41;;;;;;;3.85;0.70;;;21.40;62.40;;;;;;4750710;30;20044;-83
2021/09/19 12:14:13;;;;;;;1.10;0.65;;;21.50;62.00;;;;;;4751749;30;20082;-83
2021/09/19 12:16:39;;;;;;;1.35;1.00;;;21.50;60.80;;;;;;4765933;30;20037;-83
2021/09/19 12:19:18;;;;;;;1.42;0.90;;;21.30;60.90;;;;;;4750937;30;20036;-82
2021/09/19 12:21:53;;;;;;;1.20;1.10;;;21.10;63.40;;;;;;4750905;30;20038;-83
2021/09/19 12:24:21;;;;;;;2.33;1.30;;;20.90;63.00;;;;;;4750133;30;20040;-84
2021/09/19 12:26:47;;;;;;;2.55;1.15;;;20.90;63.20;;;;;;4750435;30;20032;-83
2021/09/19 12:29:16;;;;;;;3.22;1.35;;;20.90;63.20;;;;;;4735859;30;20056;-84
2021/09/19 12:31:46;;;;;;;1.35;1.17;;;20.90;62.00;;;;;;4734449;30;20044;-81
2021/09/19 12:34:15;;;;;;;2.20;1.33;;;20.90;63.90;;;;;;4749017;30;20099;-84
2021/09/19 12:36:47;;;;;;;4.82;1.40;;;21.00;63.50;;;;;;4764061;30;20036;-83
2021/09/19 12:39:18;;;;;;;2.00;1.20;;;21.10;61.10;;;;;;4749279;30;20033;-83
2021/09/19 12:41:45;;;;;;;1.98;1.20;;;21.20;63.30;;;;;;4734808;30;20039;-83
2021/09/19 12:44:24;;;;;;;1.60;1.20;;;21.30;62.30;;;;;;4749731;30;20064;-83
2021/09/19 12:46:52;;;;;;;4.13;1.20;;;21.30;62.60;;;;;;4727954;30;20339;-83
2021/09/19 12:49:25;;;;;;;2.35;1.58;;;21.20;62.40;;;;;;4746832;30;20064;-83
2021/09/19 12:52:00;;;;;;;0.88;0.68;;;21.20;61.30;;;;;;4746467;30;20044;-83
2021/09/19 12:54:26;;;;;;;1.02;0.80;;;21.20;61.10;;;;;;4746365;30;20107;-83
2021/09/19 12:56:52;;;;;;;1.83;1.08;;;21.20;60.20;;;;;;4746262;30;20033;-83
2021/09/19 12:59:20;;;;;;;1.27;1.17;;;21.20;60.30;;;;;;4745950;30;20210;-83
2021/09/19 13:01:47;;;;;;;2.08;1.13;;;21.20;61.30;;;;;;4745956;30;20041;-83
2021/09/19 13:04:13;;;;;;;5.10;1.65;;;21.20;60.90;;;;;;4745803;30;20043;-83
2021/09/19 13:06:39;;;;;;;1.60;1.48;;;21.10;61.30;;;;;;4745646;30;20053;-83
2021/09/19 13:09:05;;;;;;;1.92;1.67;;;20.90;62.00;;;;;;4746142;30;20037;-83
2021/09/19 13:11:31;;;;;;;2.40;2.15;;;20.90;62.60;;;;;;4745852;30;20102;-83
2021/09/19 13:13:57;;;;;;;5.00;2.30;;;20.80;62.00;;;;;;4745856;30;20115;-83
2021/09/19 13:16:23;;;;;;;4.18;1.83;;;20.50;62.00;;;;;;4749082;30;20601;-82
2021/09/19 13:18:49;;;;;;;2.53;1.85;;;20.50;61.80;;;;;;4763456;30;20077;-83
2021/09/19 13:21:14;;;;;;;3.10;1.77;;;20.40;64.00;;;;;;4764758;30;20036;-83
2021/09/19 13:23:40;;;;;;;2.38;1.50;;;20.40;63.20;;;;;;4733888;30;20036;-83
2021/09/19 13:26:06;;;;;;;4.85;1.85;;;20.50;62.80;;;;;;4764073;30;20099;-83
2021/09/19 13:28:32;;;;;;;2.75;1.90;;;20.30;62.50;;;;;;4734352;30;20063;-83
2021/09/19 13:30:58;;;;;;;2.28;1.50;;;20.40;62.00;;;;;;4748787;30;20040;-83
2021/09/19 13:33:23;;;;;;;4.60;1.65;;;20.40;63.80;;;;;;4734051;30;20029;-83
2021/09/19 13:35:49;;;;;;;3.45;1.63;;;20.60;63.00;;;;;;4748379;30;20047;-83
2021/09/19 13:38:15;;;;;;;2.13;1.50;;;20.60;61.80;;;;;;4734515;30;20075;-83
2021/09/19 13:40:41;;;;;;;3.53;1.90;;;20.50;62.50;;;;;;4734317;30;20036;-83
2021/09/19 13:43:06;;;;;;;3.22;2.55;;;20.50;63.60;;;;;;4734105;30;20395;-83
2021/09/19 13:45:35;;;;;;;6.07;2.22;;;20.50;63.30;;;;;;4733345;30;20040;-83
2021/09/19 13:48:02;;;;;;;3.50;2.58;;;20.40;63.10;;;;;;4762445;30;20028;-82
2021/09/19 13:50:28;;;;;;;6.20;2.83;;;20.30;64.10;;;;;;4748131;30;20077;-83
2021/09/19 13:52:54;;;;;;;7.97;3.00;;;20.20;63.70;;;;;;4764418;30;20036;-83
2021/09/19 13:55:20;;;;;;;4.40;2.80;;;20.20;64.40;;;;;;4733792;30;20334;-83
2021/09/19 13:57:46;;;;;;;7.57;3.10;;;20.10;64.50;;;;;;4733823;30;20035;-83
2021/09/19 14:00:12;;;;;;;5.75;2.83;;;20.00;64.50;;;;;;4733592;30;20324;-83
2021/09/19 14:02:38;;;;;;;2.88;2.45;;;20.00;64.60;;;;;;4747953;30;20219;-83
2021/09/19 14:05:06;;;;;;;5.35;2.20;;;19.90;65.30;;;;;;4763011;30;20046;-83
2021/09/19 14:07:32;;;;;;;3.83;2.20;;;19.90;64.80;;;;;;4748307;30;20055;-83
2021/09/19 14:09:58;;;;;;;6.80;2.00;;;19.90;64.60;;;;;;4747991;30;20032;-82
2021/09/19 14:12:24;;;;;;;3.50;2.00;;;19.90;64.60;;;;;;4762895;30;20067;-83
2021/09/19 14:14:50;;;;;;;3.17;1.92;;;20.00;64.70;;;;;;4748532;30;20032;-82
2021/09/19 14:17:16;;;;;;;5.88;2.30;;;19.90;62.90;;;;;;4723901;30;20036;-82
2021/09/19 14:19:42;;;;;;;4.65;1.98;;;19.80;63.40;;;;;;4745006;30;20033;-82
2021/09/19 14:22:08;;;;;;;2.00;1.80;;;19.70;65.70;;;;;;4745577;30;20036;-82
2021/09/19 14:24:34;;;;;;;2.60;1.92;;;19.80;64.90;;;;;;4745662;30;20047;-82
2021/09/19 14:27:00;;;;;;;1.70;1.60;;;19.80;65.40;;;;;;4745525;30;20041;-83
2021/09/19 14:29:26;;;;;;;3.13;2.00;;;19.80;64.40;;;;;;4745431;30;20040;-83
2021/09/19 14:31:52;;;;;;;3.97;1.83;;;19.80;64.70;;;;;;4745213;30;20051;-82
2021/09/19 14:34:18;;;;;;;3.70;2.10;;;19.80;64.30;;;;;;4745563;30;20047;-82
2021/09/19 14:36:44;;;;;;;4.85;2.22;;;19.80;65.40;;;;;;4745389;30;20053;-82
2021/09/19 14:39:10;;;;;;;2.80;1.88;;;19.90;64.60;;;;;;4730917;30;20031;-83
2021/09/19 14:41:36;;;;;;;2.22;1.73;;;19.80;63.40;;;;;;4745815;30;20048;-82
2021/09/19 14:44:03;;;;;;;3.28;2.05;;;19.70;64.00;;;;;;4744993;30;20036;-82
2021/09/19 14:46:28;;;;;;;1.73;1.60;;;19.70;65.10;;;;;;4748867;30;20097;-82
2021/09/19 14:48:56;;;;;;;2.28;1.70;;;19.70;64.30;;;;;;4748236;30;20325;-83
2021/09/19 14:51:22;;;;;;;2.72;2.20;;;19.70;64.10;;;;;;4747417;30;20047;-83
2021/09/19 14:53:47;;;;;;;4.72;2.33;;;19.60;64.20;;;;;;4747861;30;20036;-83
2021/09/19 14:56:14;;;;;;;2.40;2.08;;;19.60;64.20;;;;;;4733685;30;20100;-83
2021/09/19 14:58:42;;;;;;;2.77;2.13;;;19.50;63.20;;;;;;4749962;30;20157;-82
2021/09/19 15:01:08;;;;;;;3.95;2.00;;;19.40;62.90;;;;;;4751191;30;20327;-83
2021/09/19 15:03:34;;;;;;;3.90;2.10;;;19.20;64.50;;;;;;4751049;30;20040;-83
2021/09/19 15:06:05;;;;;;;6.28;2.47;;;19.10;64.80;;;;;;4750777;30;20072;-83
2021/09/19 15:08:31;;;;;;;3.05;2.00;;;19.20;64.90;;;;;;4750620;30;20031;-83
2021/09/19 15:10:56;;;;;;;3.88;1.90;;;19.20;63.60;;;;;;4750905;30;20147;-83
2021/09/19 15:13:22;;;;;;;3.22;2.00;;;19.10;63.80;;;;;;4750881;30;20438;-83
2021/09/19 15:15:48;;;;;;;2.10;1.65;;;18.90;63.90;;;;;;4751336;30;20036;-82
2021/09/19 15:18:14;;;;;;;2.03;1.70;;;18.80;64.10;;;;;;4764729;30;20039;-83
2021/09/19 15:20:40;;;;;;;3.42;1.80;;;18.80;64.70;;;;;;4766544;30;20032;-82
2021/09/19 15:23:05;;;;;;;3.17;2.00;;;18.80;65.00;;;;;;4765314;30;20220;-83
2021/09/19 15:25:31;;;;;;;4.07;1.80;;;18.80;65.40;;;;;;4764961;30;20077;-83
2021/09/19 15:27:57;;;;;;;2.97;1.92;;;18.80;64.40;;;;;;4765053;30;20338;-83
2021/09/19 15:30:24;;;;;;;7.63;2.28;;;18.80;64.70;;;;;;4765392;30;20093;-83